createdAt,value
2023-01-15T00:02:23.119Z,100.00
2023-01-15T00:08:25.027Z,100.00
2023-01-15T00:14:26.964Z,100.00
2023-01-15T00:20:28.924Z,100.00
2023-01-15T00:26:51.811Z,100.00
2023-01-15T00:32:53.723Z,100.00
2023-01-15T00:38:55.881Z,100.00
2023-01-15T00:44:57.812Z,100.00
2023-01-15T00:50:59.818Z,100.00
2023-01-15T00:57:01.902Z,100.00
2023-01-15T01:03:03.840Z,100.00
2023-01-15T01:09:05.747Z,100.00
2023-01-15T01:15:09.978Z,100.00
2023-01-15T01:21:11.850Z,97.48
2023-01-15T01:27:13.736Z,95.56
2023-01-15T01:33:15.649Z,94.89
2023-01-15T01:39:19.709Z,96.79
2023-01-15T01:45:33.753Z,96.58
2023-01-15T01:52:01.969Z,97.27
2023-01-15T01:58:08.018Z,98.30
2023-01-15T02:04:11.596Z,96.43
2023-01-15T02:10:16.391Z,95.53
2023-01-15T02:16:34.174Z,96.70
2023-01-15T02:23:09.612Z,95.96
2023-01-15T02:29:21.466Z,95.62
2023-01-15T02:35:46.022Z,95.92
2023-01-15T02:41:52.123Z,97.11
2023-01-15T02:47:58.498Z,96.67
2023-01-15T02:54:03.451Z,97.52
2023-01-15T03:00:11.302Z,98.80
2023-01-15T03:06:46.406Z,97.99
2023-01-15T03:13:06.040Z,97.57
2023-01-15T03:19:13.570Z,97.38
2023-01-15T03:25:29.035Z,98.11
2023-01-15T03:31:31.035Z,97.53
2023-01-15T03:37:33.194Z,96.24
2023-01-15T03:44:10.546Z,95.59
2023-01-15T03:50:32.173Z,93.65
2023-01-15T03:56:59.796Z,93.81
2023-01-15T04:03:04.083Z,94.43
2023-01-15T04:09:10.030Z,92.03
2023-01-15T04:15:12.847Z,91.84
2023-01-15T04:21:14.719Z,90.81
2023-01-15T04:27:16.690Z,90.40
2023-01-15T04:33:18.588Z,91.62
2023-01-15T04:39:20.915Z,91.62
2023-01-15T04:45:22.819Z,92.19
2023-01-15T04:51:24.793Z,92.58
2023-01-15T04:57:26.675Z,93.08
2023-01-15T05:03:30.772Z,93.72
2023-01-15T05:09:33.124Z,92.20
2023-01-15T05:15:35.186Z,89.47
2023-01-15T05:21:41.452Z,86.47
2023-01-15T05:27:43.412Z,84.22
2023-01-15T05:33:49.066Z,80.88
2023-01-15T05:39:50.967Z,83.27
2023-01-15T05:45:52.891Z,83.03
2023-01-15T05:51:55.696Z,83.47
2023-01-15T05:57:58.498Z,84.24
2023-01-15T06:04:02.862Z,85.48
2023-01-15T06:10:05.400Z,85.62
2023-01-15T06:16:10.993Z,84.88
2023-01-15T06:22:12.983Z,83.39
2023-01-15T06:28:14.875Z,82.91
2023-01-15T06:34:16.851Z,81.90
2023-01-15T06:40:19.347Z,79.39
2023-01-15T06:46:40.031Z,80.38
2023-01-15T06:52:41.964Z,79.54
2023-01-15T06:58:44.149Z,81.95
2023-01-15T07:04:47.747Z,79.81
2023-01-15T07:10:49.729Z,80.12
2023-01-15T07:16:52.602Z,80.99
2023-01-15T07:22:54.492Z,79.67
2023-01-15T07:28:56.387Z,81.23
2023-01-15T07:34:58.275Z,80.62
2023-01-15T07:41:26.885Z,81.17
2023-01-15T07:47:47.550Z,82.23
2023-01-15T07:53:49.487Z,82.07
2023-01-15T07:59:51.737Z,83.48
2023-01-15T08:05:55.544Z,83.98
2023-01-15T08:12:21.366Z,84.25
2023-01-15T08:18:23.261Z,84.79
2023-01-15T08:24:25.249Z,85.14
2023-01-15T08:30:27.161Z,84.92
2023-01-15T08:36:29.045Z,85.24
2023-01-15T08:42:31.117Z,85.37
2023-01-15T08:48:33.358Z,86.24
2023-01-15T08:54:35.256Z,86.39
2023-01-15T09:00:37.709Z,86.62
2023-01-15T09:06:39.646Z,85.88
2023-01-15T09:12:41.530Z,85.70
2023-01-15T09:18:43.841Z,85.50
2023-01-15T09:24:46.483Z,85.74
2023-01-15T09:30:48.838Z,84.93
2023-01-15T09:36:51.243Z,84.92
2023-01-15T09:43:21.887Z,84.96
2023-01-15T09:49:48.534Z,84.28
2023-01-15T09:55:52.093Z,84.30
2023-01-15T10:01:54.359Z,84.13
2023-01-15T10:08:12.774Z,82.55
2023-01-15T10:14:45.267Z,82.91
2023-01-15T10:21:33.237Z,82.02
2023-01-15T10:27:37.310Z,81.80
2023-01-15T10:34:00.763Z,82.20
2023-01-15T10:40:42.363Z,81.36
2023-01-15T10:46:59.087Z,82.96
2023-01-15T10:53:29.252Z,81.65
2023-01-15T10:59:47.527Z,80.33
2023-01-15T11:05:49.831Z,81.15
2023-01-15T11:12:18.296Z,80.87
2023-01-15T11:18:51.878Z,80.35
2023-01-15T11:25:04.047Z,79.66
2023-01-15T11:31:11.647Z,79.87
2023-01-15T11:37:13.606Z,80.21
2023-01-15T11:43:43.375Z,79.29
2023-01-15T11:50:13.904Z,76.59
2023-01-15T11:56:20.356Z,72.94
2023-01-15T12:02:44.795Z,73.09
2023-01-15T12:09:15.313Z,72.04
2023-01-15T12:16:07.315Z,71.55
2023-01-15T12:22:45.395Z,71.04
2023-01-15T12:29:20.854Z,70.48
2023-01-15T12:35:31.459Z,69.28
2023-01-15T12:41:56.363Z,68.51
2023-01-15T12:48:24.059Z,68.40
2023-01-15T12:54:38.128Z,69.09
2023-01-15T13:00:43.604Z,67.45
2023-01-15T13:06:51.823Z,67.60
2023-01-15T13:13:28.992Z,67.76
2023-01-15T13:20:31.198Z,68.63
2023-01-15T13:26:57.236Z,69.15
2023-01-15T13:33:12.793Z,68.77
2023-01-15T13:39:24.799Z,68.81
2023-01-15T13:45:48.578Z,67.15
2023-01-15T13:51:51.075Z,66.38
2023-01-15T13:57:52.989Z,67.19
2023-01-15T14:04:02.698Z,67.57
2023-01-15T14:10:26.428Z,66.69
2023-01-15T14:16:43.056Z,67.56
2023-01-15T14:23:18.044Z,66.67
2023-01-15T14:29:33.676Z,67.50
2023-01-15T14:35:40.168Z,68.05
2023-01-15T14:42:02.448Z,68.42
2023-01-15T14:48:17.658Z,68.94
2023-01-15T14:54:20.715Z,68.07
2023-01-15T15:00:24.340Z,68.65
2023-01-15T15:06:28.019Z,69.19
2023-01-15T15:12:42.919Z,68.27
2023-01-15T15:18:58.385Z,69.26
2023-01-15T15:25:17.872Z,70.29
2023-01-15T15:31:19.797Z,69.89
2023-01-15T15:37:27.476Z,71.19
2023-01-15T15:44:14.527Z,70.48
2023-01-15T15:50:26.434Z,70.61
2023-01-15T15:56:30.559Z,70.77
2023-01-15T16:02:38.127Z,71.04
2023-01-15T16:08:40.063Z,71.76
2023-01-15T16:14:42.083Z,71.74
2023-01-15T16:20:44.141Z,71.55
2023-01-15T16:27:05.572Z,72.13
2023-01-15T16:33:08.202Z,72.50
2023-01-15T16:39:23.599Z,72.67
2023-01-15T16:45:27.245Z,74.80
2023-01-15T16:51:32.179Z,74.95
2023-01-15T16:57:35.323Z,76.01
2023-01-15T17:03:41.715Z,75.93
2023-01-15T17:09:56.669Z,75.82
2023-01-15T17:16:06.638Z,76.12
2023-01-15T17:22:16.845Z,76.49
2023-01-15T17:28:19.235Z,76.08
2023-01-15T17:34:25.125Z,75.24
2023-01-15T17:40:27.139Z,76.03
2023-01-15T17:46:29.171Z,75.56
2023-01-15T17:52:31.091Z,74.14
2023-01-15T17:58:51.508Z,75.07
2023-01-15T18:05:13.371Z,74.34
2023-01-15T18:11:15.354Z,74.18
2023-01-15T18:17:17.270Z,73.56
2023-01-15T18:23:19.174Z,73.95
2023-01-15T18:29:21.363Z,74.21
2023-01-15T18:35:23.944Z,73.75
2023-01-15T18:41:37.654Z,73.52
2023-01-15T18:47:41.058Z,74.21
2023-01-15T18:53:42.963Z,73.13
2023-01-15T18:59:47.387Z,73.84
2023-01-15T19:05:49.393Z,75.58
2023-01-15T19:11:52.471Z,75.08
2023-01-15T19:18:13.035Z,76.34
2023-01-15T19:24:14.939Z,77.34
2023-01-15T19:30:17.262Z,77.24
2023-01-15T19:36:19.140Z,77.29
2023-01-15T19:42:39.572Z,77.93
2023-01-15T19:49:00.306Z,78.50
2023-01-15T19:55:08.263Z,78.48
2023-01-15T20:01:17.423Z,78.65
2023-01-15T20:07:19.451Z,79.47
2023-01-15T20:13:42.302Z,78.84
2023-01-15T20:19:44.185Z,78.37
2023-01-15T20:25:50.137Z,78.89
2023-01-15T20:31:52.145Z,79.18
2023-01-15T20:37:54.266Z,78.80
2023-01-15T20:44:14.835Z,79.63
2023-01-15T20:50:17.896Z,80.02
2023-01-15T20:56:19.974Z,79.18
2023-01-15T21:02:22.286Z,78.97
2023-01-15T21:08:24.265Z,79.20
2023-01-15T21:14:26.144Z,79.94
2023-01-15T21:20:28.227Z,80.12
2023-01-15T21:26:31.000Z,81.34
2023-01-15T21:32:32.927Z,81.71
2023-01-15T21:38:35.163Z,82.36
2023-01-15T21:44:43.688Z,81.96
2023-01-15T21:50:45.664Z,82.81
2023-01-15T21:56:47.628Z,81.69
2023-01-15T22:02:49.802Z,82.30
2023-01-15T22:08:55.398Z,82.28
2023-01-15T22:14:57.569Z,81.97
2023-01-15T22:21:07.512Z,81.53
2023-01-15T22:27:15.257Z,81.64
2023-01-15T22:33:17.594Z,81.94
2023-01-15T22:39:21.064Z,81.14
2023-01-15T22:45:24.460Z,82.02
2023-01-15T22:51:26.469Z,81.12
2023-01-15T22:57:30.966Z,81.17
2023-01-15T23:03:35.609Z,81.75
2023-01-15T23:09:37.617Z,82.24
2023-01-15T23:15:39.741Z,82.25
2023-01-15T23:21:42.022Z,83.08
2023-01-15T23:27:43.945Z,83.94
2023-01-15T23:33:46.415Z,83.59
2023-01-15T23:39:48.315Z,83.78
2023-01-15T23:46:09.467Z,83.69
2023-01-15T23:52:11.738Z,83.94
2023-01-15T23:58:13.620Z,84.15
